MROC/SJO METAR and TAF weather

Enter ICAO airport designator
Station Type Date Time Source
MROC METAR 2021/03/02 16:00 UTC NOAA

MROC 021600Z 08016G28KT 9999 FEW030 26/15 A3001 NOSIG


Station Type Date Time Source
MROC Decoded METAR 2021/03/02 16:00 UTC NOAA

Juan Santamaria, Costa Rica (MROC) 10-00N 084-13W 939M
Mar 02, 2021 - 11:00 AM EST / 2021.03.02 1600 UTC
Wind: from the E (080 degrees) at 18 MPH (16 KT) gusting to 32 MPH (28 KT):0
Visibility: greater than 7 mile(s):0
Sky conditions: mostly clear
Temperature: 78 F (26 C)
Dew Point: 59 F (15 C)
Relative Humidity: 50%
Pressure (altimeter): 30.01 in. Hg (1016 hPa)
ob: MROC 021600Z 08016G28KT 9999 FEW030 26/15 A3001 NOSIG
cycle: 16

Station Type Date Time Source
MROC TAF 2021/03/02 12:19 UTC NOAA

TAF MROC 021100Z 0212/0312 10012KT 9999 FEW030 TX30/0219Z TN19/0310Z
TEMPO 0212/0224 11014G24KT

Example: see airport list